createdAt,value
2017-11-13T00:00:49.713Z,7.07
2017-11-13T00:03:18.984Z,6.97
2017-11-13T00:05:48.987Z,7.57
2017-11-13T00:08:19.029Z,7.90
2017-11-13T00:10:48.264Z,6.68
2017-11-13T00:13:17.500Z,7.40
2017-11-13T00:15:46.784Z,7.00
2017-11-13T00:18:16.008Z,6.85
2017-11-13T00:20:46.068Z,6.87
2017-11-13T00:23:15.307Z,7.20
2017-11-13T00:25:44.536Z,7.15
2017-11-13T00:28:14.585Z,5.82
2017-11-13T00:30:44.574Z,6.30
2017-11-13T00:33:14.564Z,6.60
2017-11-13T00:35:43.822Z,6.47
2017-11-13T00:38:13.049Z,7.35
2017-11-13T00:40:42.322Z,6.97
2017-11-13T00:43:11.548Z,7.25
2017-11-13T00:45:40.780Z,6.95
2017-11-13T00:48:10.801Z,7.80
2017-11-13T00:50:40.803Z,6.97
2017-11-13T00:53:10.149Z,6.97
2017-11-13T00:55:39.374Z,6.47
2017-11-13T00:58:08.601Z,7.22
2017-11-13T01:00:37.870Z,7.45
2017-11-13T01:03:07.103Z,6.65
2017-11-13T01:05:36.337Z,7.37
2017-11-13T01:08:05.612Z,7.80
2017-11-13T01:10:35.612Z,6.90
2017-11-13T01:13:04.873Z,6.50
2017-11-13T01:15:34.114Z,6.03
2017-11-13T01:18:03.336Z,6.93
2017-11-13T01:20:33.393Z,6.80
2017-11-13T01:23:02.628Z,7.32
2017-11-13T01:25:31.893Z,6.60
2017-11-13T01:28:01.125Z,7.57
2017-11-13T01:30:30.374Z,6.50
2017-11-13T01:32:59.616Z,7.05
2017-11-13T01:35:28.868Z,7.37
2017-11-13T01:37:58.099Z,7.50
2017-11-13T01:40:27.329Z,8.05
2017-11-13T01:42:56.604Z,6.50
2017-11-13T01:45:25.836Z,8.10
2017-11-13T01:47:55.869Z,6.43
2017-11-13T01:50:25.889Z,7.03
2017-11-13T01:52:55.904Z,7.28
2017-11-13T01:55:25.901Z,7.20
2017-11-13T01:57:55.153Z,6.62
2017-11-13T02:03:41.901Z,7.20
2017-11-13T02:06:11.948Z,7.15
2017-11-13T02:08:41.175Z,6.37
2017-11-13T02:11:10.410Z,6.32
2017-11-13T02:13:39.656Z,6.50
2017-11-13T02:16:09.665Z,7.93
2017-11-13T02:18:38.957Z,6.82
2017-11-13T02:21:08.191Z,7.68
2017-11-13T02:23:37.415Z,8.02
2017-11-13T02:26:06.669Z,6.78
2017-11-13T02:28:35.892Z,7.10
2017-11-13T02:31:05.125Z,7.45
2017-11-13T02:33:34.402Z,7.30
2017-11-13T02:36:03.661Z,7.22
2017-11-13T02:38:32.910Z,7.40
2017-11-13T02:41:02.202Z,7.03
2017-11-13T02:43:31.436Z,7.57
2017-11-13T02:46:01.568Z,7.35
2017-11-13T02:48:30.805Z,6.85
2017-11-13T02:51:00.028Z,7.22
2017-11-13T02:53:29.283Z,7.75
2017-11-13T02:55:58.508Z,7.32
2017-11-13T02:58:27.806Z,7.25
2017-11-13T03:00:57.041Z,8.25
2017-11-13T03:03:26.279Z,7.47
2017-11-13T03:05:55.536Z,6.80
2017-11-13T03:08:25.757Z,7.05
2017-11-13T03:10:55.016Z,7.57
2017-11-13T03:13:24.295Z,8.35
2017-11-13T03:15:53.524Z,7.40
2017-11-13T03:18:22.753Z,7.45
2017-11-13T03:20:52.040Z,7.65
2017-11-13T03:23:21.269Z,7.60
2017-11-13T03:25:51.314Z,8.35
2017-11-13T03:28:20.539Z,7.37
2017-11-13T03:30:49.807Z,7.70
2017-11-13T03:33:19.826Z,7.37
2017-11-13T03:35:49.053Z,7.95
2017-11-13T03:38:18.284Z,7.25
2017-11-13T03:40:47.524Z,7.37
2017-11-13T03:43:16.760Z,7.30
2017-11-13T03:45:46.073Z,6.70
2017-11-13T03:48:15.314Z,7.00
2017-11-13T03:50:44.541Z,7.50
2017-11-13T03:53:13.805Z,7.82
2017-11-13T03:55:43.052Z,7.28
2017-11-13T03:58:12.277Z,7.30
2017-11-13T04:00:41.539Z,6.87
2017-11-13T04:03:10.811Z,8.00
2017-11-13T04:05:40.830Z,7.68
2017-11-13T04:08:11.227Z,7.12
2017-11-13T04:10:40.572Z,7.00
2017-11-13T04:13:09.807Z,7.57
2017-11-13T04:15:39.077Z,7.70
2017-11-13T04:18:08.307Z,6.62
2017-11-13T04:20:37.535Z,7.35
2017-11-13T04:23:06.795Z,8.40
2017-11-13T04:25:36.032Z,8.07
2017-11-13T04:28:05.265Z,7.15
2017-11-13T04:30:34.544Z,7.20
2017-11-13T04:33:04.536Z,7.07
2017-11-13T04:35:33.856Z,8.07
2017-11-13T04:38:03.105Z,7.10
2017-11-13T04:40:32.345Z,7.05
2017-11-13T04:43:01.599Z,7.00
2017-11-13T04:45:30.836Z,8.63
2017-11-13T04:48:00.094Z,7.90
2017-11-13T04:50:29.369Z,7.85
2017-11-13T04:52:59.367Z,7.93
2017-11-13T04:55:28.688Z,7.40
2017-11-13T04:57:58.699Z,7.75
2017-11-13T05:00:28.724Z,8.10
2017-11-13T05:02:58.744Z,8.75
2017-11-13T05:05:28.744Z,9.13
2017-11-13T05:07:57.992Z,8.57
2017-11-13T05:10:27.249Z,8.25
2017-11-13T05:12:57.275Z,9.02
2017-11-13T05:15:27.292Z,8.18
2017-11-13T05:17:57.289Z,8.55
2017-11-13T05:20:26.552Z,9.23
2017-11-13T05:22:55.820Z,8.50
2017-11-13T05:25:25.060Z,8.65
2017-11-13T05:27:54.303Z,10.27
2017-11-13T05:30:24.447Z,10.13
2017-11-13T05:32:53.684Z,9.27
2017-11-13T05:35:22.966Z,10.05
2017-11-13T05:37:52.219Z,10.93
2017-11-13T05:40:22.292Z,11.38
2017-11-13T05:42:51.531Z,8.77
2017-11-13T05:45:20.779Z,9.82
2017-11-13T05:47:50.028Z,9.77
2017-11-13T05:50:19.279Z,9.63
2017-11-13T05:52:48.525Z,10.10
2017-11-13T05:55:17.784Z,9.40
2017-11-13T05:57:47.433Z,9.55
2017-11-13T06:00:16.780Z,9.27
2017-11-13T06:02:46.025Z,9.07
2017-11-13T06:05:15.358Z,10.43
2017-11-13T06:07:45.376Z,10.68
2017-11-13T06:10:15.465Z,9.75
2017-11-13T06:12:44.753Z,9.95
2017-11-13T06:15:14.016Z,10.00
2017-11-13T06:17:43.404Z,8.88
2017-11-13T06:20:13.413Z,9.25
2017-11-13T06:22:44.109Z,10.10
2017-11-13T06:25:13.361Z,10.30
2017-11-13T06:27:42.670Z,10.57
2017-11-13T06:30:11.903Z,11.02
2017-11-13T06:32:41.141Z,10.27
2017-11-13T06:35:11.178Z,10.77
2017-11-13T06:37:47.529Z,10.45
2017-11-13T06:40:23.319Z,10.65
2017-11-13T06:42:53.871Z,9.80
2017-11-13T06:45:23.122Z,9.95
2017-11-13T06:48:03.905Z,10.55
2017-11-13T06:50:34.741Z,10.13
2017-11-13T06:53:07.176Z,10.73
2017-11-13T06:55:36.424Z,12.35
2017-11-13T06:58:05.674Z,12.07
2017-11-13T07:00:35.073Z,10.52
2017-11-13T07:03:07.333Z,10.68
2017-11-13T07:05:41.485Z,11.15
2017-11-13T07:08:18.501Z,12.00
2017-11-13T07:10:56.057Z,10.48
2017-11-13T07:13:34.174Z,12.02
2017-11-13T07:19:14.757Z,11.68
2017-11-13T07:21:44.840Z,12.52
2017-11-13T07:24:14.082Z,11.23
2017-11-13T07:26:44.113Z,11.32
2017-11-13T07:29:23.185Z,10.70
2017-11-13T07:34:37.177Z,11.07
2017-11-13T07:37:06.608Z,10.18
2017-11-13T07:39:35.878Z,10.48
2017-11-13T07:42:05.134Z,9.98
2017-11-13T07:44:34.432Z,9.65
2017-11-13T07:47:03.727Z,11.25
2017-11-13T07:49:33.765Z,10.40
2017-11-13T07:52:03.032Z,9.82
2017-11-13T07:54:32.304Z,10.38
2017-11-13T07:57:01.599Z,10.48
2017-11-13T07:59:30.892Z,10.60
2017-11-13T08:02:00.164Z,9.88
2017-11-13T08:04:29.408Z,9.40
2017-11-13T08:06:59.550Z,10.95
2017-11-13T08:09:28.812Z,9.93
2017-11-13T08:11:58.052Z,10.32
2017-11-13T08:14:27.297Z,9.85
2017-11-13T08:16:56.609Z,9.82
2017-11-13T08:19:25.864Z,9.35
2017-11-13T08:21:55.128Z,7.85
2017-11-13T08:24:24.411Z,9.40
2017-11-13T08:26:53.746Z,8.20
2017-11-13T08:29:23.773Z,8.10
2017-11-13T08:31:53.009Z,6.87
2017-11-13T08:34:22.281Z,5.68
2017-11-13T08:36:51.553Z,7.10
2017-11-13T08:39:21.560Z,6.18
2017-11-13T08:41:50.840Z,7.05
2017-11-13T08:44:20.085Z,6.35
2017-11-13T08:46:50.113Z,6.93
2017-11-13T08:49:19.418Z,8.27
2017-11-13T08:51:48.657Z,8.70
2017-11-13T08:54:17.914Z,9.48
2017-11-13T08:56:47.222Z,9.70
2017-11-13T08:59:19.222Z,9.45
2017-11-13T09:01:48.452Z,10.43
2017-11-13T09:04:18.987Z,9.82
2017-11-13T09:06:50.559Z,10.38
2017-11-13T09:40:56.340Z,9.93
2017-11-13T10:04:17.246Z,10.82
2017-11-13T10:06:46.505Z,12.15
2017-11-13T10:09:15.961Z,10.45
2017-11-13T10:11:45.493Z,10.93
2017-11-13T10:14:15.503Z,9.98
2017-11-13T10:16:46.246Z,10.98
2017-11-13T10:19:16.257Z,10.15
2017-11-13T10:21:46.323Z,10.40
2017-11-13T10:24:15.556Z,9.75
2017-11-13T10:26:44.793Z,9.13
2017-11-13T10:29:14.113Z,10.63
2017-11-13T10:31:43.368Z,11.43
2017-11-13T10:34:13.393Z,10.52
2017-11-13T10:36:43.445Z,13.30
2017-11-13T10:39:12.749Z,11.25
2017-11-13T10:41:41.995Z,10.90
2017-11-13T10:44:11.313Z,11.45
2017-11-13T10:46:41.348Z,10.73
2017-11-13T10:49:10.684Z,10.82
2017-11-13T10:51:40.052Z,10.20
2017-11-13T10:54:09.284Z,10.20
2017-11-13T10:56:38.573Z,9.70
2017-11-13T10:59:07.821Z,10.55
2017-11-13T11:01:37.126Z,9.45
2017-11-13T11:04:06.362Z,10.13
2017-11-13T11:06:36.337Z,10.95
2017-11-13T11:09:12.961Z,11.40
2017-11-13T11:11:44.353Z,11.15
2017-11-13T11:14:19.045Z,10.65
2017-11-13T11:20:02.101Z,10.20
2017-11-13T11:22:33.321Z,10.10
2017-11-13T11:25:03.621Z,12.23
2017-11-13T11:27:32.858Z,11.95
2017-11-13T11:30:02.922Z,13.00
2017-11-13T11:35:47.206Z,12.93
2017-11-13T11:38:16.552Z,12.35
2017-11-13T11:40:49.061Z,14.38
2017-11-13T11:43:18.328Z,12.63
2017-11-13T11:45:47.569Z,11.88
2017-11-13T11:48:17.592Z,12.85
2017-11-13T11:50:46.848Z,12.27
2017-11-13T11:53:16.131Z,12.10
2017-11-13T11:55:46.384Z,13.18
2017-11-13T11:58:15.731Z,11.98
2017-11-13T12:00:45.128Z,11.10
2017-11-13T12:03:14.436Z,11.18
2017-11-13T12:05:43.674Z,11.90
2017-11-13T12:08:12.985Z,10.68
2017-11-13T12:10:42.273Z,10.18
2017-11-13T12:13:11.545Z,11.85
2017-11-13T12:15:41.570Z,11.68
2017-11-13T12:18:10.918Z,12.48
2017-11-13T12:20:40.297Z,10.65
2017-11-13T12:23:09.648Z,10.38
2017-11-13T12:25:38.997Z,11.27
2017-11-13T12:28:08.234Z,10.50
2017-11-13T12:30:37.722Z,11.00
2017-11-13T12:33:08.467Z,9.98
2017-11-13T12:35:37.755Z,11.10
2017-11-13T12:38:06.972Z,10.50
2017-11-13T12:40:36.233Z,9.95
2017-11-13T12:43:05.524Z,8.82
2017-11-13T12:45:35.681Z,9.60
2017-11-13T12:48:05.766Z,8.95
2017-11-13T12:50:35.005Z,7.50
2017-11-13T12:53:04.336Z,6.57
2017-11-13T12:55:33.688Z,5.93
2017-11-13T12:58:02.973Z,6.97
2017-11-13T13:00:32.240Z,6.62
2017-11-13T13:03:01.595Z,6.80
2017-11-13T13:05:30.812Z,6.50
2017-11-13T13:08:00.195Z,6.70
2017-11-13T13:10:29.456Z,5.35
2017-11-13T13:12:59.472Z,6.55
2017-11-13T13:15:28.723Z,4.75
2017-11-13T13:17:57.969Z,5.10
2017-11-13T13:20:27.219Z,4.95
2017-11-13T13:22:56.459Z,4.15
2017-11-13T13:25:25.691Z,4.15
2017-11-13T13:27:56.597Z,4.43
2017-11-13T13:30:25.808Z,4.85
2017-11-13T13:32:55.147Z,4.53
2017-11-13T13:35:24.410Z,5.97
2017-11-13T13:37:53.622Z,7.35
2017-11-13T13:40:22.916Z,8.00
2017-11-13T13:42:52.145Z,8.00
2017-11-13T13:45:21.405Z,7.55
2017-11-13T13:47:51.441Z,8.02
2017-11-13T13:50:21.485Z,7.25
2017-11-13T13:52:50.725Z,7.85
2017-11-13T13:55:19.981Z,8.48
2017-11-13T13:57:49.286Z,7.70
2017-11-13T14:00:18.617Z,6.75
2017-11-13T14:02:47.860Z,6.72
2017-11-13T14:05:18.309Z,4.68
2017-11-13T14:07:47.566Z,6.30
2017-11-13T14:10:16.876Z,4.93
2017-11-13T14:12:46.403Z,5.03
2017-11-13T14:15:15.599Z,5.60
2017-11-13T14:17:44.845Z,5.75
2017-11-13T14:20:14.197Z,5.60
2017-11-13T14:22:43.429Z,5.60
2017-11-13T14:25:12.678Z,5.60
2017-11-13T14:27:43.568Z,5.57
2017-11-13T14:30:12.809Z,6.45
2017-11-13T14:32:42.064Z,6.20
2017-11-13T14:35:11.375Z,8.05
2017-11-13T14:37:40.621Z,7.95
2017-11-13T14:40:10.629Z,8.10
2017-11-13T14:42:39.869Z,8.00
2017-11-13T14:45:09.109Z,8.32
2017-11-13T14:47:38.379Z,8.77
2017-11-13T14:50:07.606Z,7.40
2017-11-13T14:52:36.843Z,8.38
2017-11-13T14:55:06.908Z,6.90
2017-11-13T14:57:36.813Z,6.65
2017-11-13T15:00:06.699Z,7.12
2017-11-13T15:02:36.717Z,7.70
2017-11-13T15:05:05.968Z,7.75
2017-11-13T15:07:35.226Z,5.32
2017-11-13T15:10:05.145Z,5.28
2017-11-13T15:12:35.374Z,4.70
2017-11-13T15:15:05.358Z,4.80
2017-11-13T15:17:35.434Z,4.55
2017-11-13T15:20:04.685Z,5.70
2017-11-13T15:22:33.992Z,6.70
2017-11-13T15:25:03.251Z,6.70
2017-11-13T15:27:33.275Z,7.10
2017-11-13T15:30:02.886Z,7.05
2017-11-13T15:32:33.318Z,6.60
2017-11-13T15:35:02.560Z,6.78
2017-11-13T15:37:31.835Z,6.93
2017-11-13T15:40:01.842Z,6.82
2017-11-13T15:42:33.880Z,7.82
2017-11-13T15:45:03.837Z,7.47
2017-11-13T15:47:33.840Z,6.68
2017-11-13T15:50:03.143Z,7.43
2017-11-13T15:52:32.384Z,7.50
2017-11-13T15:55:01.705Z,28.33
2017-11-13T15:57:30.975Z,8.05
2017-11-13T16:00:00.213Z,25.05
2017-11-13T16:02:29.456Z,7.60
2017-11-13T16:05:00.247Z,7.55
2017-11-13T16:07:29.484Z,7.70
2017-11-13T16:09:58.748Z,8.18
2017-11-13T16:12:28.010Z,7.82
2017-11-13T16:14:57.258Z,8.32
2017-11-13T16:17:26.691Z,10.93
2017-11-13T16:19:56.757Z,12.60
2017-11-13T16:22:26.017Z,8.30
2017-11-13T16:24:56.134Z,7.78
2017-11-13T16:27:26.159Z,8.55
2017-11-13T16:29:57.819Z,9.10
2017-11-13T16:32:27.918Z,10.10
2017-11-13T16:34:57.197Z,10.65
2017-11-13T16:37:26.441Z,12.13
2017-11-13T16:39:55.774Z,10.63
2017-11-13T16:42:25.040Z,9.77
2017-11-13T16:44:55.758Z,11.63
2017-11-13T16:47:25.793Z,11.60
2017-11-13T16:49:55.265Z,14.43
2017-11-13T16:52:24.509Z,11.48
2017-11-13T16:54:53.751Z,8.80
2017-11-13T16:57:23.005Z,7.57
2017-11-13T16:59:52.271Z,11.45
2017-11-13T17:02:21.529Z,9.82
2017-11-13T17:04:50.787Z,10.70
2017-11-13T17:07:20.035Z,10.68
2017-11-13T17:09:49.277Z,12.45
2017-11-13T17:12:19.289Z,18.05
2017-11-13T17:14:49.302Z,15.40
2017-11-13T17:17:18.618Z,13.77
2017-11-13T17:19:47.853Z,18.98
2017-11-13T17:22:17.129Z,11.07
2017-11-13T17:24:46.432Z,16.15
2017-11-13T17:27:15.679Z,13.90
2017-11-13T17:29:44.920Z,12.23
2017-11-13T17:32:14.950Z,13.27
2017-11-13T17:34:44.182Z,12.20
2017-11-13T17:37:13.424Z,11.00
2017-11-13T17:39:45.722Z,15.82
2017-11-13T17:42:14.955Z,11.55
2017-11-13T17:44:44.275Z,11.65
2017-11-13T17:47:14.436Z,10.90
2017-11-13T17:49:43.745Z,11.90
2017-11-13T17:52:17.099Z,31.65
2017-11-13T17:54:48.497Z,13.20
2017-11-13T17:57:18.504Z,24.17
2017-11-13T17:59:48.544Z,16.98
2017-11-13T18:02:17.815Z,29.15
2017-11-13T18:04:47.204Z,13.50
2017-11-13T18:07:17.524Z,11.77
2017-11-13T18:09:46.773Z,12.65
2017-11-13T18:12:17.101Z,13.35
2017-11-13T18:14:46.340Z,10.82
2017-11-13T18:17:15.678Z,11.32
2017-11-13T18:19:45.042Z,14.10
2017-11-13T18:22:14.381Z,11.15
2017-11-13T18:24:44.647Z,10.68
2017-11-13T18:27:16.114Z,11.85
2017-11-13T18:29:45.866Z,11.45
2017-11-13T18:32:16.319Z,11.60
2017-11-13T18:34:45.727Z,10.70
2017-11-13T18:37:22.773Z,11.48
2017-11-13T18:40:00.583Z,14.65
2017-11-13T18:42:34.561Z,17.55
2017-11-13T18:45:04.036Z,13.05
2017-11-13T18:47:33.412Z,14.30
2017-11-13T18:50:02.894Z,11.90
2017-11-13T18:52:34.281Z,12.37
2017-11-13T18:55:09.377Z,13.55
2017-11-13T18:57:40.812Z,14.35
2017-11-13T19:00:18.289Z,12.30
2017-11-13T19:02:54.764Z,13.05
2017-11-13T19:05:25.638Z,12.05
2017-11-13T19:07:56.409Z,12.32
2017-11-13T19:10:26.974Z,13.15
2017-11-13T19:12:58.344Z,12.20
2017-11-13T19:15:30.961Z,11.80
2017-11-13T19:18:05.063Z,11.60
2017-11-13T19:20:36.026Z,12.50
2017-11-13T19:23:05.346Z,13.15
2017-11-13T19:25:34.586Z,11.30
2017-11-13T19:28:04.692Z,11.43
2017-11-13T19:30:33.929Z,11.07
2017-11-13T19:33:03.191Z,12.70
2017-11-13T19:35:32.457Z,13.05
2017-11-13T19:38:01.705Z,13.02
2017-11-13T19:40:30.982Z,13.35
2017-11-13T19:43:00.285Z,14.82
2017-11-13T19:45:29.634Z,14.63
2017-11-13T19:47:59.023Z,15.70
2017-11-13T19:50:28.445Z,13.90
2017-11-13T19:52:58.582Z,13.35
2017-11-13T19:55:28.124Z,12.60
2017-11-13T19:57:57.590Z,11.38
2017-11-13T20:00:27.098Z,12.75
2017-11-13T20:02:56.645Z,12.80
2017-11-13T20:05:26.143Z,11.45
2017-11-13T20:07:55.655Z,10.95
2017-11-13T20:10:25.157Z,11.15
2017-11-13T20:12:54.547Z,12.15
2017-11-13T20:15:23.972Z,12.05
2017-11-13T20:17:53.435Z,11.63
2017-11-13T20:20:22.760Z,12.90
2017-11-13T20:22:52.057Z,12.18
2017-11-13T20:25:21.440Z,12.48
2017-11-13T20:27:51.514Z,11.95
2017-11-13T20:30:20.765Z,12.15
2017-11-13T20:32:50.053Z,12.88
2017-11-13T20:35:19.313Z,13.15
2017-11-13T20:37:48.561Z,13.23
2017-11-13T20:40:17.844Z,14.57
2017-11-13T20:42:48.872Z,12.82
2017-11-13T20:45:18.772Z,12.25
2017-11-13T20:47:48.021Z,11.93
2017-11-13T20:50:17.283Z,12.20
2017-11-13T20:52:46.556Z,12.88
2017-11-13T20:55:15.826Z,12.48
2017-11-13T20:57:45.068Z,13.55
2017-11-13T21:00:14.470Z,12.57
2017-11-13T21:02:43.776Z,12.80
2017-11-13T21:05:13.011Z,12.82
2017-11-13T21:07:43.059Z,12.50
2017-11-13T21:10:12.278Z,13.05
2017-11-13T21:12:41.516Z,12.40
2017-11-13T21:15:11.561Z,11.73
2017-11-13T21:17:40.806Z,10.95
2017-11-13T21:20:10.049Z,12.50
2017-11-13T21:22:40.787Z,12.27
2017-11-13T21:25:10.024Z,13.62
2017-11-13T21:27:39.268Z,15.10
2017-11-13T21:30:09.297Z,16.02
2017-11-13T21:32:39.317Z,15.13
2017-11-13T21:35:09.344Z,14.75
2017-11-13T21:37:38.657Z,13.30
2017-11-13T21:40:07.928Z,13.05
2017-11-13T21:42:37.957Z,14.73
2017-11-13T21:45:07.968Z,14.75
2017-11-13T21:47:38.797Z,14.10
2017-11-13T21:50:08.808Z,13.52
2017-11-13T21:52:38.052Z,12.20
2017-11-13T21:55:07.303Z,11.05
2017-11-13T21:57:36.541Z,10.73
2017-11-13T22:00:05.805Z,13.23
2017-11-13T22:02:35.051Z,12.40
2017-11-13T22:05:04.290Z,13.32
2017-11-13T22:07:33.537Z,12.05
2017-11-13T22:10:02.780Z,12.40
2017-11-13T22:12:32.021Z,11.82
2017-11-13T22:15:02.056Z,14.00
2017-11-13T22:17:31.424Z,13.48
2017-11-13T22:20:00.671Z,12.88
2017-11-13T22:22:29.893Z,13.10
2017-11-13T22:24:59.162Z,12.02
2017-11-13T22:27:28.400Z,11.80
2017-11-13T22:29:57.642Z,12.50
2017-11-13T22:32:27.690Z,12.82
2017-11-13T22:34:56.953Z,13.68
2017-11-13T22:37:26.989Z,13.02
2017-11-13T22:39:56.993Z,18.45
2017-11-13T22:42:27.837Z,16.42
2017-11-13T22:44:57.844Z,15.75
2017-11-13T22:47:27.861Z,15.70
2017-11-13T22:49:57.112Z,14.32
2017-11-13T22:52:26.385Z,14.57
2017-11-13T22:54:56.386Z,14.07
2017-11-13T22:57:30.495Z,14.25
2017-11-13T23:00:00.125Z,16.00
2017-11-13T23:02:30.144Z,14.20
2017-11-13T23:04:59.409Z,14.27
2017-11-13T23:07:28.662Z,13.30
2017-11-13T23:09:57.892Z,14.32
2017-11-13T23:12:27.148Z,14.30
2017-11-13T23:14:56.425Z,12.18
2017-11-13T23:17:25.699Z,12.32
2017-11-13T23:19:54.930Z,13.38
2017-11-13T23:22:24.941Z,13.90
2017-11-13T23:24:55.098Z,14.48
2017-11-13T23:27:24.358Z,14.35
2017-11-13T23:29:53.676Z,13.68
2017-11-13T23:32:22.952Z,13.77
2017-11-13T23:34:52.221Z,13.20
2017-11-13T23:37:21.456Z,13.35
2017-11-13T23:39:50.734Z,14.43
2017-11-13T23:42:19.972Z,13.93
2017-11-13T23:44:49.228Z,13.60
2017-11-13T23:47:18.544Z,13.45
2017-11-13T23:49:47.760Z,15.32
2017-11-13T23:52:17.005Z,12.63
2017-11-13T23:54:46.376Z,14.48
2017-11-13T23:57:15.614Z,13.25
2017-11-13T23:59:44.853Z,13.10
